createdAt,value
2022-09-18T00:00:57.795Z,0.80
2022-09-18T00:03:24.329Z,0.90
2022-09-18T00:05:50.678Z,1.00
2022-09-18T00:08:17.066Z,0.80
2022-09-18T00:10:46.662Z,1.05
2022-09-18T00:13:14.312Z,1.27
2022-09-18T00:15:40.639Z,0.80
2022-09-18T00:18:07.457Z,0.57
2022-09-18T00:20:34.918Z,1.10
2022-09-18T00:23:01.225Z,0.70
2022-09-18T00:25:27.676Z,0.77
2022-09-18T00:27:53.952Z,0.57
2022-09-18T00:30:20.242Z,0.60
2022-09-18T00:32:46.618Z,0.80
2022-09-18T00:35:12.957Z,0.73
2022-09-18T00:37:39.241Z,0.50
2022-09-18T00:40:05.797Z,0.55
2022-09-18T00:42:32.153Z,0.50
2022-09-18T00:44:58.430Z,0.70
2022-09-18T00:47:43.544Z,0.60
2022-09-18T00:50:09.820Z,0.60
2022-09-18T00:52:47.426Z,0.50
2022-09-18T00:55:14.392Z,0.50
2022-09-18T00:57:46.605Z,0.55
2022-09-18T01:00:14.638Z,0.60
2022-09-18T01:02:42.324Z,0.60
2022-09-18T01:05:09.368Z,0.90
2022-09-18T01:07:35.754Z,0.90
2022-09-18T01:10:11.190Z,0.52
2022-09-18T01:12:56.132Z,0.70
2022-09-18T01:15:28.324Z,0.60
2022-09-18T01:18:00.440Z,0.50
2022-09-18T01:20:46.008Z,0.80
2022-09-18T01:23:12.362Z,0.80
2022-09-18T01:25:56.298Z,0.60
2022-09-18T01:28:25.434Z,0.93
2022-09-18T01:30:55.016Z,0.77
2022-09-18T01:33:27.863Z,0.65
2022-09-18T01:35:56.138Z,0.60
2022-09-18T01:38:45.642Z,1.30
2022-09-18T01:41:13.908Z,1.08
2022-09-18T01:43:40.744Z,0.80
2022-09-18T01:46:09.992Z,0.90
2022-09-18T01:48:41.753Z,0.60
2022-09-18T01:51:14.033Z,0.50
2022-09-18T01:53:42.172Z,0.52
2022-09-18T01:56:12.041Z,0.90
2022-09-18T01:58:38.672Z,0.70
2022-09-18T02:01:08.783Z,0.60
2022-09-18T02:03:48.083Z,0.57
2022-09-18T02:06:26.264Z,1.15
2022-09-18T02:08:56.467Z,0.50
2022-09-18T02:11:23.068Z,0.40
2022-09-18T02:14:07.843Z,0.65
2022-09-18T02:16:36.593Z,0.50
2022-09-18T02:19:05.873Z,0.50
2022-09-18T02:21:32.492Z,0.50
2022-09-18T02:24:04.892Z,0.40
2022-09-18T02:26:32.698Z,0.90
2022-09-18T02:28:59.299Z,0.60
2022-09-18T02:31:25.809Z,0.90
2022-09-18T02:33:55.134Z,0.55
2022-09-18T02:36:30.248Z,0.77
2022-09-18T02:39:08.840Z,0.90
2022-09-18T02:41:49.950Z,1.10
2022-09-18T02:44:24.266Z,1.05
2022-09-18T02:47:00.430Z,0.93
2022-09-18T02:49:56.265Z,0.70
2022-09-18T02:52:28.425Z,0.70
2022-09-18T02:54:59.534Z,0.80
2022-09-18T02:57:29.446Z,1.00
2022-09-18T02:59:56.861Z,0.90
2022-09-18T03:02:23.482Z,1.00
2022-09-18T03:04:50.119Z,0.70
2022-09-18T03:07:17.158Z,0.70
2022-09-18T03:09:44.050Z,0.90
2022-09-18T03:12:10.610Z,0.70
2022-09-18T03:14:36.900Z,0.73
2022-09-18T03:17:03.520Z,0.63
2022-09-18T03:19:29.874Z,0.63
2022-09-18T03:21:56.215Z,0.60
2022-09-18T03:24:25.197Z,0.60
2022-09-18T03:26:52.400Z,0.70
2022-09-18T03:29:18.842Z,0.50
2022-09-18T03:31:45.222Z,0.50
2022-09-18T03:34:11.587Z,0.80
2022-09-18T03:36:38.214Z,0.77
2022-09-18T03:39:04.561Z,0.60
2022-09-18T03:41:30.960Z,0.80
2022-09-18T03:43:57.524Z,0.82
2022-09-18T03:46:24.180Z,0.80
2022-09-18T03:48:51.369Z,0.70
2022-09-18T03:51:18.942Z,0.50
2022-09-18T03:53:46.066Z,0.40
2022-09-18T03:56:15.703Z,0.30
2022-09-18T03:58:41.975Z,0.32
2022-09-18T04:01:08.913Z,0.50
2022-09-18T04:03:35.303Z,0.50
2022-09-18T04:06:02.571Z,0.50
2022-09-18T04:08:28.878Z,0.50
2022-09-18T04:10:55.194Z,0.40
2022-09-18T04:13:21.476Z,0.30
2022-09-18T04:15:50.285Z,0.40
2022-09-18T04:18:17.219Z,0.50
2022-09-18T04:20:43.635Z,0.50
2022-09-18T04:23:12.162Z,0.70
2022-09-18T04:25:38.964Z,0.80
2022-09-18T04:28:05.260Z,0.60
2022-09-18T04:30:31.548Z,1.00
2022-09-18T04:32:57.889Z,0.60
2022-09-18T04:35:24.166Z,0.50
2022-09-18T04:37:50.490Z,0.95
2022-09-18T04:40:16.975Z,0.60
2022-09-18T04:42:43.295Z,0.70
2022-09-18T04:45:10.796Z,0.55
2022-09-18T04:47:37.204Z,0.60
2022-09-18T04:50:04.755Z,0.70
2022-09-18T04:52:31.070Z,0.68
2022-09-18T04:54:57.368Z,0.60
2022-09-18T04:57:23.650Z,1.10
2022-09-18T04:59:49.920Z,0.52
2022-09-18T05:02:16.417Z,0.73
2022-09-18T05:04:42.776Z,0.82
2022-09-18T05:07:09.114Z,0.50
2022-09-18T05:09:36.218Z,0.65
2022-09-18T05:12:03.242Z,0.70
2022-09-18T05:14:29.538Z,0.70
2022-09-18T05:16:56.472Z,0.70
2022-09-18T05:19:22.986Z,0.60
2022-09-18T05:21:50.361Z,0.60
2022-09-18T05:24:17.597Z,0.60
2022-09-18T05:26:44.524Z,0.57
2022-09-18T05:29:10.910Z,0.70
2022-09-18T05:31:37.487Z,0.55
2022-09-18T05:34:03.937Z,0.60
2022-09-18T05:36:30.217Z,0.80
2022-09-18T05:38:57.045Z,0.75
2022-09-18T05:41:23.337Z,0.65
2022-09-18T05:43:49.931Z,0.80
2022-09-18T05:46:16.300Z,0.77
2022-09-18T05:48:43.178Z,0.70
2022-09-18T05:51:09.448Z,0.65
2022-09-18T05:53:35.914Z,0.98
2022-09-18T05:56:02.642Z,0.73
2022-09-18T05:58:28.928Z,0.52
2022-09-18T06:00:59.319Z,0.50
2022-09-18T06:03:25.830Z,0.65
2022-09-18T06:05:52.934Z,0.50
2022-09-18T06:08:19.715Z,0.40
2022-09-18T06:10:46.065Z,0.43
2022-09-18T06:13:15.435Z,0.40
2022-09-18T06:15:46.127Z,0.30
2022-09-18T06:18:14.459Z,0.50
2022-09-18T06:20:41.484Z,0.40
2022-09-18T06:23:08.401Z,0.57
2022-09-18T06:25:34.842Z,0.68
2022-09-18T06:28:01.231Z,0.57
2022-09-18T06:30:28.432Z,0.50
2022-09-18T06:32:56.713Z,0.52
2022-09-18T06:35:23.651Z,0.40
2022-09-18T06:37:50.069Z,0.65
2022-09-18T06:40:16.732Z,0.65
2022-09-18T06:42:46.060Z,0.65
2022-09-18T06:45:12.658Z,0.50
2022-09-18T06:47:38.946Z,0.50
2022-09-18T06:50:06.680Z,0.50
2022-09-18T06:52:33.151Z,0.40
2022-09-18T06:54:59.424Z,0.40
2022-09-18T06:57:25.910Z,0.60
2022-09-18T06:59:52.320Z,0.50
2022-09-18T07:02:19.738Z,0.57
2022-09-18T07:04:46.885Z,0.70
2022-09-18T07:07:13.284Z,0.93
2022-09-18T07:09:39.610Z,0.68
2022-09-18T07:12:06.046Z,0.80
2022-09-18T07:14:32.380Z,0.80
2022-09-18T07:16:58.656Z,0.60
2022-09-18T07:19:25.010Z,0.60
2022-09-18T07:21:51.958Z,0.60
2022-09-18T07:24:18.247Z,1.00
2022-09-18T07:26:44.524Z,0.60
2022-09-18T07:29:10.930Z,0.95
2022-09-18T07:31:37.906Z,0.60
2022-09-18T07:34:04.313Z,0.88
2022-09-18T07:36:31.112Z,0.70
2022-09-18T07:38:57.975Z,0.60
2022-09-18T07:41:24.288Z,0.57
2022-09-18T07:43:51.236Z,0.68
2022-09-18T07:46:17.581Z,0.57
2022-09-18T07:48:44.037Z,0.70
2022-09-18T07:51:10.540Z,0.80
2022-09-18T07:53:37.586Z,0.65
2022-09-18T07:56:07.862Z,0.90
2022-09-18T07:58:34.224Z,0.93
2022-09-18T08:01:02.308Z,0.90
2022-09-18T08:03:28.778Z,0.85
2022-09-18T08:05:55.440Z,0.68
2022-09-18T08:08:21.917Z,0.70
2022-09-18T08:10:48.364Z,0.47
2022-09-18T08:13:15.075Z,0.60
2022-09-18T08:15:42.268Z,0.70
2022-09-18T08:18:09.549Z,0.60
2022-09-18T08:20:35.857Z,0.70
2022-09-18T08:23:03.678Z,0.80
2022-09-18T08:25:30.528Z,0.65
2022-09-18T08:28:03.566Z,0.68
2022-09-18T08:30:30.336Z,0.65
2022-09-18T08:33:00.477Z,0.40
2022-09-18T08:35:27.835Z,0.43
2022-09-18T08:37:55.124Z,0.40
2022-09-18T08:40:22.826Z,0.40
2022-09-18T08:42:58.203Z,0.40
2022-09-18T08:45:33.406Z,0.35
2022-09-18T08:48:04.844Z,0.40
2022-09-18T08:50:37.611Z,0.40
2022-09-18T08:53:06.882Z,0.60
2022-09-18T08:55:36.259Z,0.95
2022-09-18T08:58:12.301Z,1.10
2022-09-18T09:00:43.054Z,1.50
2022-09-18T09:03:25.027Z,2.67
2022-09-18T09:06:01.623Z,2.05
2022-09-18T09:08:51.232Z,1.60
2022-09-18T09:11:50.169Z,1.55
2022-09-18T09:14:53.193Z,1.40
2022-09-18T09:17:28.360Z,1.70
2022-09-18T09:20:03.451Z,1.80
2022-09-18T09:22:47.540Z,2.05
2022-09-18T09:25:13.816Z,1.20
2022-09-18T09:27:45.036Z,1.30
2022-09-18T09:30:17.227Z,1.63
2022-09-18T09:32:47.810Z,2.10
2022-09-18T09:35:14.574Z,1.67
2022-09-18T09:37:43.682Z,1.92
2022-09-18T09:40:17.044Z,1.73
2022-09-18T09:42:52.825Z,1.20
2022-09-18T09:45:29.097Z,1.40
2022-09-18T09:48:01.296Z,1.25
2022-09-18T09:50:32.750Z,1.63
2022-09-18T09:53:01.478Z,1.27
2022-09-18T09:55:31.508Z,1.30
2022-09-18T09:58:03.717Z,1.40
2022-09-18T10:00:34.172Z,1.42
2022-09-18T10:03:18.830Z,1.23
2022-09-18T10:06:08.174Z,1.40
2022-09-18T10:08:49.882Z,1.20
2022-09-18T10:11:17.211Z,1.60
2022-09-18T10:13:55.494Z,1.30
2022-09-18T10:16:24.553Z,1.20
2022-09-18T10:18:51.000Z,1.20
2022-09-18T10:21:18.575Z,1.20
2022-09-18T10:23:48.101Z,1.10
2022-09-18T10:26:34.699Z,1.45
2022-09-18T10:29:02.040Z,1.40
2022-09-18T10:31:47.235Z,1.23
2022-09-18T10:34:43.417Z,2.55
2022-09-18T10:37:28.226Z,2.20
2022-09-18T10:39:59.927Z,1.60
2022-09-18T10:42:27.356Z,1.52
2022-09-18T10:45:01.364Z,1.48
2022-09-18T10:47:30.500Z,1.00
2022-09-18T10:50:06.259Z,1.10
2022-09-18T10:52:32.686Z,1.52
2022-09-18T10:55:08.666Z,1.30
2022-09-18T10:57:53.786Z,1.55
2022-09-18T11:00:20.043Z,1.38
2022-09-18T11:03:09.139Z,1.55
2022-09-18T11:05:36.603Z,1.42
2022-09-18T11:08:23.563Z,1.55
2022-09-18T11:10:51.382Z,1.67
2022-09-18T11:13:22.333Z,1.58
2022-09-18T11:16:00.736Z,1.80
2022-09-18T11:18:27.560Z,2.17
2022-09-18T11:20:54.673Z,2.00
2022-09-18T11:23:21.078Z,2.15
2022-09-18T11:25:47.460Z,2.70
2022-09-18T11:28:26.522Z,2.42
2022-09-18T11:31:04.609Z,2.10
2022-09-18T11:33:37.536Z,1.80
2022-09-18T11:36:05.767Z,2.25
2022-09-18T11:38:32.556Z,2.30
2022-09-18T11:41:00.429Z,2.20
2022-09-18T11:43:28.791Z,2.45
2022-09-18T11:46:01.859Z,2.38
2022-09-18T11:48:46.844Z,2.53
2022-09-18T11:51:15.454Z,2.55
2022-09-18T11:53:43.414Z,2.65
2022-09-18T11:56:24.402Z,2.30
2022-09-18T11:58:55.690Z,2.20
2022-09-18T12:01:28.058Z,1.98
2022-09-18T12:04:07.825Z,2.20
2022-09-18T12:06:34.195Z,2.30
2022-09-18T12:09:02.957Z,2.17
2022-09-18T12:11:41.437Z,2.10
2022-09-18T12:14:14.817Z,2.05
2022-09-18T12:16:45.991Z,2.30
2022-09-18T12:19:31.870Z,2.00
2022-09-18T12:22:18.461Z,2.00
2022-09-18T12:24:44.818Z,1.95
2022-09-18T12:27:20.515Z,1.70
2022-09-18T12:29:54.686Z,2.28
2022-09-18T12:32:23.973Z,2.40
2022-09-18T12:35:01.476Z,1.50
2022-09-18T12:37:50.759Z,1.80
2022-09-18T12:40:36.824Z,2.03
2022-09-18T12:43:03.234Z,2.30
2022-09-18T12:45:29.589Z,3.10
2022-09-18T12:48:14.760Z,2.85
2022-09-18T12:50:49.208Z,1.90
2022-09-18T12:53:24.632Z,2.50
2022-09-18T12:55:50.918Z,2.40
2022-09-18T12:58:32.465Z,3.50
2022-09-18T13:01:00.749Z,2.65
2022-09-18T13:03:31.257Z,3.40
2022-09-18T13:06:10.281Z,2.72
2022-09-18T13:08:36.541Z,2.15
2022-09-18T13:11:04.663Z,2.33
2022-09-18T13:13:31.026Z,3.13
2022-09-18T13:16:01.407Z,2.45
2022-09-18T13:18:31.585Z,2.63
2022-09-18T13:20:58.810Z,2.28
2022-09-18T13:23:38.552Z,3.28
2022-09-18T13:26:06.573Z,2.60
2022-09-18T13:28:33.422Z,2.92
2022-09-18T13:31:15.442Z,1.90
2022-09-18T13:33:53.360Z,2.38
2022-09-18T13:36:31.809Z,2.75
2022-09-18T13:39:02.947Z,2.30
2022-09-18T13:41:40.467Z,2.97
2022-09-18T13:44:15.545Z,2.72
2022-09-18T13:46:42.032Z,2.20
2022-09-18T13:49:34.420Z,2.85
2022-09-18T13:54:28.388Z,2.25
2022-09-18T13:57:04.148Z,2.22
2022-09-18T13:59:44.517Z,3.22
2022-09-18T14:02:49.331Z,2.80
2022-09-18T14:05:28.281Z,2.70
2022-09-18T14:07:56.905Z,2.53
2022-09-18T14:10:24.868Z,2.08
2022-09-18T14:13:09.993Z,2.40
2022-09-18T14:15:36.287Z,2.78
2022-09-18T14:18:07.671Z,2.15
2022-09-18T14:20:34.507Z,2.33
2022-09-18T14:23:19.643Z,2.67
2022-09-18T14:25:46.789Z,2.00
2022-09-18T14:28:14.554Z,3.35
2022-09-18T14:30:40.896Z,2.70
2022-09-18T14:33:19.710Z,2.30
2022-09-18T14:35:57.368Z,3.08
2022-09-18T14:38:27.536Z,2.47
2022-09-18T14:40:59.895Z,2.45
2022-09-18T14:43:26.272Z,2.30
2022-09-18T14:45:53.532Z,2.33
2022-09-18T14:48:27.527Z,2.05
2022-09-18T14:50:58.317Z,1.85
2022-09-18T14:53:26.846Z,2.30
2022-09-18T14:56:06.196Z,2.38
2022-09-18T14:58:42.687Z,2.08
2022-09-18T15:01:14.499Z,1.88
2022-09-18T15:03:51.321Z,1.55
2022-09-18T15:06:21.500Z,2.00
2022-09-18T15:08:49.659Z,2.03
2022-09-18T15:11:16.985Z,1.40
2022-09-18T15:13:43.376Z,1.50
2022-09-18T15:16:18.121Z,1.40
2022-09-18T15:18:44.494Z,1.70
2022-09-18T15:21:22.934Z,1.33
2022-09-18T15:23:49.467Z,1.58
2022-09-18T15:26:16.429Z,1.58
2022-09-18T15:28:44.799Z,1.40
2022-09-18T15:31:12.129Z,1.60
2022-09-18T15:33:50.992Z,1.50
2022-09-18T15:36:23.069Z,1.73
2022-09-18T15:41:23.799Z,1.27
2022-09-18T15:43:50.426Z,1.20
2022-09-18T15:46:27.545Z,1.40
2022-09-18T15:48:59.284Z,1.20
2022-09-18T15:51:29.527Z,1.40
2022-09-18T15:54:12.093Z,1.38
2022-09-18T15:56:52.178Z,1.42
2022-09-18T15:59:29.914Z,1.50
2022-09-18T16:01:56.692Z,1.30
2022-09-18T16:04:24.407Z,1.13
2022-09-18T16:06:53.108Z,0.95
2022-09-18T16:09:40.507Z,1.02
2022-09-18T16:12:40.191Z,1.35
2022-09-18T16:15:09.893Z,0.68
2022-09-18T16:17:37.296Z,1.00
2022-09-18T16:20:23.846Z,1.02
2022-09-18T16:22:51.588Z,1.40
2022-09-18T16:25:23.805Z,1.20
2022-09-18T16:27:51.990Z,1.00
2022-09-18T16:30:18.327Z,0.70
2022-09-18T16:32:44.636Z,0.88
2022-09-18T16:35:14.809Z,0.70
2022-09-18T16:37:41.938Z,0.90
2022-09-18T16:40:15.721Z,0.80
2022-09-18T16:42:42.081Z,1.00
2022-09-18T16:45:09.027Z,0.90
2022-09-18T16:47:36.495Z,0.93
2022-09-18T16:50:02.983Z,0.80
2022-09-18T16:52:29.291Z,0.90
2022-09-18T16:54:55.668Z,1.20
2022-09-18T16:57:23.623Z,1.30
2022-09-18T16:59:50.512Z,1.33
2022-09-18T17:02:18.117Z,1.00
2022-09-18T17:04:44.393Z,1.50
2022-09-18T17:07:10.841Z,1.00
2022-09-18T17:09:37.282Z,1.50
2022-09-18T17:12:03.807Z,1.30
2022-09-18T17:14:30.116Z,1.40
2022-09-18T17:16:56.614Z,1.20
2022-09-18T17:19:23.139Z,1.15
2022-09-18T17:21:50.068Z,1.30
2022-09-18T17:24:17.500Z,1.08
2022-09-18T17:26:43.847Z,1.73
2022-09-18T17:29:12.234Z,1.40
2022-09-18T17:31:38.722Z,1.67
2022-09-18T17:34:05.728Z,1.40
2022-09-18T17:36:32.089Z,1.10
2022-09-18T17:39:02.316Z,1.23
2022-09-18T17:41:28.894Z,0.98
2022-09-18T17:43:55.250Z,1.10
2022-09-18T17:46:21.709Z,0.95
2022-09-18T17:48:48.048Z,1.00
2022-09-18T17:51:18.197Z,1.00
2022-09-18T17:53:45.393Z,1.10
2022-09-18T17:56:12.730Z,0.60
2022-09-18T17:58:41.206Z,0.52
2022-09-18T18:01:11.515Z,0.50
2022-09-18T18:03:38.186Z,0.40
2022-09-18T18:06:05.140Z,0.30
2022-09-18T18:08:31.596Z,0.30
2022-09-18T18:11:02.298Z,0.40
2022-09-18T18:13:28.581Z,0.30
2022-09-18T18:15:55.066Z,0.22
2022-09-18T18:18:21.587Z,0.45
2022-09-18T18:20:51.131Z,0.25
2022-09-18T18:23:17.903Z,0.20
2022-09-18T18:25:44.191Z,0.30
2022-09-18T18:28:11.840Z,0.20
2022-09-18T18:30:38.544Z,0.13
2022-09-18T18:33:05.607Z,0.20
2022-09-18T18:35:32.644Z,0.15
2022-09-18T18:37:59.080Z,0.20
2022-09-18T18:40:27.009Z,0.20
2022-09-18T18:42:53.613Z,0.20
2022-09-18T18:45:20.644Z,0.20
2022-09-18T18:47:50.497Z,0.20
2022-09-18T18:50:17.688Z,0.20
2022-09-18T18:52:45.392Z,0.30
2022-09-18T18:55:11.854Z,0.25
2022-09-18T18:57:39.320Z,0.47
2022-09-18T19:00:06.029Z,0.28
2022-09-18T19:02:32.438Z,0.30
2022-09-18T19:05:02.520Z,0.20
2022-09-18T19:07:29.721Z,0.20
2022-09-18T19:09:56.663Z,0.20
2022-09-18T19:12:22.948Z,0.30
2022-09-18T19:14:49.328Z,0.25
2022-09-18T19:17:17.193Z,0.30
2022-09-18T19:19:43.511Z,0.30
2022-09-18T19:22:15.459Z,0.30
2022-09-18T19:24:41.769Z,0.28
2022-09-18T19:27:08.106Z,0.30
2022-09-18T19:29:35.820Z,0.35
2022-09-18T19:32:02.678Z,0.30
2022-09-18T19:34:28.984Z,0.40
2022-09-18T19:36:55.916Z,0.28
2022-09-18T19:39:24.389Z,0.38
2022-09-18T19:42:04.757Z,0.40
2022-09-18T19:44:41.603Z,0.30
2022-09-18T19:47:26.621Z,0.28
2022-09-18T19:49:53.981Z,0.17
2022-09-18T19:52:21.513Z,0.20
2022-09-18T19:54:48.960Z,0.20
2022-09-18T19:57:15.664Z,0.20
2022-09-18T19:59:41.976Z,0.10
2022-09-18T20:02:11.286Z,0.28
2022-09-18T20:04:40.827Z,0.20
2022-09-18T20:07:07.774Z,0.20
2022-09-18T20:09:34.072Z,0.50
2022-09-18T20:12:01.504Z,0.55
2022-09-18T20:14:27.861Z,0.60
2022-09-18T20:16:54.899Z,0.50
2022-09-18T20:19:22.579Z,0.45
2022-09-18T20:21:50.331Z,0.60
2022-09-18T20:24:16.758Z,0.40
2022-09-18T20:26:43.112Z,0.60
2022-09-18T20:29:12.940Z,0.60
2022-09-18T20:31:42.220Z,0.45
2022-09-18T20:34:10.907Z,0.40
2022-09-18T20:36:37.448Z,0.35
2022-09-18T20:39:04.036Z,0.63
2022-09-18T20:41:30.399Z,0.68
2022-09-18T20:43:59.425Z,0.60
2022-09-18T20:46:27.547Z,0.60
2022-09-18T20:48:56.574Z,0.52
2022-09-18T20:51:27.120Z,0.40
2022-09-18T20:53:56.257Z,0.40
2022-09-18T20:56:23.273Z,0.57
2022-09-18T20:58:51.582Z,0.82
2022-09-18T21:01:20.521Z,0.75
2022-09-18T21:03:48.480Z,0.60
2022-09-18T21:06:22.840Z,0.57
2022-09-18T21:08:50.863Z,0.70
2022-09-18T21:11:18.474Z,1.10
2022-09-18T21:13:47.358Z,0.90
2022-09-18T21:16:14.758Z,0.70
2022-09-18T21:18:42.052Z,0.70
2022-09-18T21:21:09.783Z,0.73
2022-09-18T21:23:55.320Z,0.80
2022-09-18T21:26:30.595Z,0.93
2022-09-18T21:29:01.315Z,0.70
2022-09-18T21:31:28.034Z,0.50
2022-09-18T21:33:54.860Z,0.60
2022-09-18T21:36:24.980Z,0.50
2022-09-18T21:38:52.395Z,0.40
2022-09-18T21:41:19.288Z,1.02
2022-09-18T21:43:48.651Z,1.45
2022-09-18T21:46:17.414Z,1.45
2022-09-18T21:48:43.723Z,0.90
2022-09-18T21:51:11.682Z,1.30
2022-09-18T21:53:41.477Z,1.20
2022-09-18T21:56:11.902Z,0.90
2022-09-18T21:58:40.641Z,1.50
2022-09-18T22:01:08.684Z,1.60
2022-09-18T22:03:35.158Z,1.38
2022-09-18T22:06:02.059Z,1.05
2022-09-18T22:08:31.503Z,1.10
2022-09-18T22:11:04.098Z,1.33
2022-09-18T22:13:32.613Z,0.98
2022-09-18T22:15:59.502Z,1.10
2022-09-18T22:18:26.867Z,1.38
2022-09-18T22:20:53.423Z,1.40
2022-09-18T22:23:19.911Z,1.30
2022-09-18T22:25:46.266Z,1.20
2022-09-18T22:28:12.582Z,1.15
2022-09-18T22:30:39.436Z,1.30
2022-09-18T22:33:06.181Z,1.27
2022-09-18T22:35:32.899Z,1.40
2022-09-18T22:37:59.174Z,1.70
2022-09-18T22:40:25.985Z,1.30
2022-09-18T22:42:52.473Z,1.20
2022-09-18T22:45:18.753Z,0.90
2022-09-18T22:47:45.172Z,1.90
2022-09-18T22:50:11.459Z,1.20
2022-09-18T22:52:37.977Z,1.38
2022-09-18T22:55:04.434Z,1.00
2022-09-18T22:57:31.075Z,1.25
2022-09-18T22:59:57.357Z,1.30
2022-09-18T23:02:23.738Z,1.27
2022-09-18T23:04:50.444Z,0.98
2022-09-18T23:07:18.123Z,1.40
2022-09-18T23:09:44.428Z,1.40
2022-09-18T23:12:10.833Z,1.30
2022-09-18T23:14:37.193Z,1.10
2022-09-18T23:17:03.608Z,1.45
2022-09-18T23:19:31.931Z,1.45
2022-09-18T23:21:58.258Z,1.30
2022-09-18T23:24:25.205Z,1.40
2022-09-18T23:26:52.307Z,1.50
2022-09-18T23:29:20.914Z,1.35
2022-09-18T23:31:50.545Z,2.00
2022-09-18T23:34:19.014Z,1.60
2022-09-18T23:36:46.681Z,1.77
2022-09-18T23:39:14.542Z,2.03
2022-09-18T23:41:41.167Z,1.73
2022-09-18T23:44:08.488Z,1.65
2022-09-18T23:46:35.385Z,1.02
2022-09-18T23:49:01.711Z,2.00
2022-09-18T23:51:29.217Z,1.55
2022-09-18T23:53:56.872Z,1.80
2022-09-18T23:56:23.601Z,1.67
2022-09-18T23:58:57.250Z,1.98
